Liberty of The Seas — C6VQ8 — position and weather

sailwx.info

Track history (hours):
 
Tides and Currents Weather Stations Pressure Air Temp Water Temp Dewpoint Dewpoint Depression Visibility Wind Speed Wind Dir Waves Ship Positions

Liberty of The Seas

Last reported at 2019-Dec-15 07:31 UTC. Time now 2019-Dec-15 11:06 UTC.
Position N 28°43' W 093°41'.

Type: Passenger vessel. MMSI: 309436000.

Date/timePositionNaut miles runAvg speedWind from/ knotsBaromVisibWave heightAir tempDewpointWater temp
2019-Dec-15 07:31N 28°43' W 093°41'61018.9
2019-Dec-13 23:17N 20°39' W 086°53'1213.6
2019-Dec-13 22:26N 20°29' W 086°59'0 0.0
2019-Dec-13 20:29N 20°29' W 086°59'0 0.0
2019-Dec-13 18:29N 20°29' W 086°59'0 0.0
2019-Dec-13 16:59N 20°29' W 086°59'0 0.0
2019-Dec-13 15:59N 20°29' W 086°59'0 0.0
2019-Dec-13 12:59N 20°29' W 086°59'145 5.4
2019-Dec-12 10:00N 18°06' W 087°24'   070 / 281016.010.8 27.025.6
2019-Dec-09 03:30N 28°39' W 093°35'7515.0
2019-Dec-08 22:30N 29°20' W 094°46'2 1.0
2019-Dec-08 20:29N 29°19' W 094°48'0 0.0
2019-Dec-08 19:59N 29°19' W 094°48'0 0.0
2019-Dec-08 17:59N 29°19' W 094°48'0 0.0
2019-Dec-08 16:59N 29°19' W 094°48'0 0.0
2019-Dec-08 12:59N 29°19' W 094°48'14 7.0
2019-Dec-08 11:00N 29°15' W 094°33'3114.8
2019-Dec-08 08:56N 28°58' W 094°04'36917.6
2019-Dec-07 12:00N 25°00' W 088°48'51319.7 240 / 111019.010.8 24.022.5
2019-Dec-06 10:00N 20°00' W 081°18'   060 / 191016.010.8 26.024.6
Track history (hours):
 
Tides and Currents Weather Stations Pressure Air Temp Water Temp Dewpoint Dewpoint Depression Visibility Wind Speed Wind Dir Waves Ship Positions

Liberty of The Seas

Last reported at 2019-Dec-15 07:31 UTC. Time now 2019-Dec-15 11:06 UTC.
Position N 28°43' W 093°41'.

Type: Passenger vessel. MMSI: 309436000.

Date/timePositionNaut miles runAvg speedWind from/ knotsBaromVisibWave heightAir tempDewpointWater temp
2019-Dec-15 07:31N 28°43' W 093°41'61018.9
2019-Dec-13 23:17N 20°39' W 086°53'1213.6
2019-Dec-13 22:26N 20°29' W 086°59'0 0.0
2019-Dec-13 20:29N 20°29' W 086°59'0 0.0
2019-Dec-13 18:29N 20°29' W 086°59'0 0.0
2019-Dec-13 16:59N 20°29' W 086°59'0 0.0
2019-Dec-13 15:59N 20°29' W 086°59'0 0.0
2019-Dec-13 12:59N 20°29' W 086°59'145 5.4
2019-Dec-12 10:00N 18°06' W 087°24'   070 / 281016.010.8 27.025.6
2019-Dec-09 03:30N 28°39' W 093°35'7515.0
2019-Dec-08 22:30N 29°20' W 094°46'2 1.0
2019-Dec-08 20:29N 29°19' W 094°48'0 0.0
2019-Dec-08 19:59N 29°19' W 094°48'0 0.0
2019-Dec-08 17:59N 29°19' W 094°48'0 0.0
2019-Dec-08 16:59N 29°19' W 094°48'0 0.0
2019-Dec-08 12:59N 29°19' W 094°48'14 7.0
2019-Dec-08 11:00N 29°15' W 094°33'3114.8
2019-Dec-08 08:56N 28°58' W 094°04'36917.6
2019-Dec-07 12:00N 25°00' W 088°48'51319.7 240 / 111019.010.8 24.022.5
2019-Dec-06 10:00N 20°00' W 081°18'   060 / 191016.010.8 26.024.6

Dump ship's entire track history